KABR/ABR METAR and TAF weather

Enter ICAO airport designator
Station Type Date Time Source
KABR METAR 2021/09/16 21:53 UTC NOAA

KABR 162153Z AUTO 01012KT 10SM CLR 23/14 A2970 RMK AO2 SLP051 T02280144


Station Type Date Time Source
KABR Decoded METAR 2021/09/16 21:53 UTC NOAA

ABERDEEN REGIONAL AIRPORT, SD, United States (KABR) 45-27N 098-25W 400M
Sep 16, 2021 - 05:53 PM EDT / 2021.09.16 2153 UTC
Wind: from the N (010 degrees) at 14 MPH (12 KT):0
Visibility: 10 mile(s):0
Sky conditions: clear
Temperature: 73.0 F (22.8 C)
Dew Point: 57.9 F (14.4 C)
Relative Humidity: 59%
Pressure (altimeter): 29.7 in. Hg (1005 hPa)
ob: KABR 162153Z AUTO 01012KT 10SM CLR 23/14 A2970 RMK AO2 SLP051 T02280144
cycle: 22

Station Type Date Time Source
KABR TAF 2021/09/16 18:42 UTC NOAA

TAF KABR 161739Z 1618/1718 25014KT P6SM SKC
FM161900 30015G24KT P6SM BKN035
TEMPO 1619/1620 BKN025
FM162000 35017G25KT P6SM SCT040
FM170100 36012KT P6SM BKN100

Example: see airport list